Time;durP1;ratioP1;P1;durP2;ratioP2;P2;SDS_P1;SDS_P2;PMS_P1;PMS_P2;Temp;Humidity;BMP_temperature;BMP_pressure;BME280_temperature;BME280_humidity;BME280_pressure;Samples;Min_cycle;Max_cycle;Signal;HPM_P1;HPM_P2
2022/04/13 08:44:46;;;;;;;6.38;1.45;;;17.00;97.00;;;;;;5114623;27;20104;-70
2022/04/13 08:47:21;;;;;;;8.93;1.70;;;17.00;96.90;;;;;;5119625;27;20051;-70
2022/04/13 08:49:49;;;;;;;5.13;1.50;;;16.90;97.00;;;;;;5114841;27;20027;-70
2022/04/13 08:52:20;;;;;;;6.20;1.70;;;17.00;97.00;;;;;;5106773;27;20031;-70
2022/04/13 08:54:53;;;;;;;4.53;1.60;;;17.00;97.00;;;;;;5122894;27;20035;-70
2022/04/13 08:57:22;;;;;;;6.45;1.50;;;17.00;97.00;;;;;;5111743;28;20110;-70
2022/04/13 09:00:04;;;;;;;3.63;1.35;;;17.00;96.90;;;;;;5102902;28;20071;-70
2022/04/13 09:03:01;;;;;;;5.68;1.50;;;16.90;96.80;;;;;;5096049;28;20058;-70
2022/04/13 09:05:30;;;;;;;3.53;1.70;;;16.90;96.80;;;;;;5112138;28;20051;-70
2022/04/13 09:08:05;;;;;;;3.78;1.98;;;17.00;96.90;;;;;;5110442;28;20027;-70
2022/04/13 09:10:32;;;;;;;3.17;1.77;;;17.00;96.80;;;;;;5111206;27;20358;-70
2022/04/13 09:12:59;;;;;;;6.38;2.08;;;16.90;96.80;;;;;;5122304;27;20135;-69
2022/04/13 09:15:26;;;;;;;2.38;1.58;;;16.90;96.80;;;;;;5107366;28;20430;-69
2022/04/13 09:17:54;;;;;;;5.68;2.15;;;17.00;96.80;;;;;;5093640;28;20456;-69
2022/04/13 09:20:21;;;;;;;8.38;2.15;;;17.00;96.90;;;;;;5094172;27;20427;-69
2022/04/13 09:22:48;;;;;;;8.10;2.22;;;17.00;96.90;;;;;;5106152;27;20020;-69
2022/04/13 09:25:15;;;;;;;6.07;1.90;;;17.00;96.80;;;;;;5106201;27;20431;-69
2022/04/13 09:27:43;;;;;;;11.07;4.63;;;16.90;96.80;;;;;;5110310;27;20110;-69
2022/04/13 09:30:10;;;;;;;8.00;3.50;;;16.90;96.80;;;;;;5112144;27;20111;-69
2022/04/13 09:32:37;;;;;;;11.10;4.80;;;16.90;96.80;;;;;;5119626;27;20032;-69
2022/04/13 09:35:05;;;;;;;8.75;4.25;;;17.00;96.90;;;;;;5092429;28;20454;-70
2022/04/13 09:37:32;;;;;;;7.25;2.75;;;17.00;96.80;;;;;;5108759;28;20108;-69
2022/04/13 09:40:00;;;;;;;10.32;3.03;;;16.90;96.80;;;;;;5091938;28;20024;-68
2022/04/13 09:42:27;;;;;;;5.55;2.97;;;16.90;96.70;;;;;;5116330;27;20554;-69
2022/04/13 09:45:02;;;;;;;6.53;2.80;;;16.80;96.60;;;;;;5120893;27;20096;-69
2022/04/13 09:47:33;;;;;;;8.50;4.00;;;16.80;96.70;;;;;;5126311;28;20023;-68
2022/04/13 09:50:01;;;;;;;6.97;3.03;;;16.80;96.80;;;;;;5094538;28;20389;-70
2022/04/13 09:52:39;;;;;;;8.15;3.13;;;16.80;96.60;;;;;;5117382;27;20403;-68
2022/04/13 09:55:08;;;;;;;6.57;2.80;;;16.80;96.70;;;;;;5117436;28;20073;-68
2022/04/13 09:57:35;;;;;;;5.40;2.80;;;16.80;96.60;;;;;;5132098;27;20054;-68
2022/04/13 10:00:06;;;;;;;7.70;2.42;;;16.80;96.70;;;;;;5135312;27;20485;-68
2022/04/13 10:02:41;;;;;;;5.50;2.60;;;16.80;96.70;;;;;;5100833;27;20027;-68
2022/04/13 10:05:15;;;;;;;6.40;2.53;;;16.80;96.70;;;;;;5135373;27;20028;-68
2022/04/13 10:07:43;;;;;;;9.10;2.72;;;16.80;96.80;;;;;;5128488;27;20442;-68
2022/04/13 10:10:30;;;;;;;6.68;2.63;;;16.80;96.80;;;;;;5100375;27;20595;-67
2022/04/13 10:12:58;;;;;;;7.07;2.83;;;16.80;96.80;;;;;;5129886;27;20062;-67
2022/04/13 10:15:25;;;;;;;6.75;2.50;;;16.80;96.90;;;;;;5117364;27;20114;-68
2022/04/13 10:18:00;;;;;;;4.82;2.50;;;16.80;96.70;;;;;;5117122;27;20043;-68
2022/04/13 10:20:46;;;;;;;11.70;3.83;;;16.80;96.70;;;;;;5117092;27;20027;-68
2022/04/13 10:23:14;;;;;;;9.25;2.53;;;16.80;96.70;;;;;;5116712;27;20370;-67
2022/04/13 10:25:42;;;;;;;6.05;2.80;;;16.80;96.80;;;;;;5135258;27;20363;-68
2022/04/13 10:28:12;;;;;;;7.95;2.55;;;16.80;96.80;;;;;;5136102;27;20035;-67
2022/04/13 10:30:42;;;;;;;9.00;2.10;;;16.90;96.80;;;;;;5115592;27;20542;-67
2022/04/13 10:33:11;;;;;;;12.35;2.50;;;16.90;96.80;;;;;;5116586;27;20115;-67
2022/04/13 10:35:42;;;;;;;7.65;2.42;;;16.90;96.80;;;;;;5127250;27;20157;-67
2022/04/13 10:38:10;;;;;;;10.05;2.30;;;16.90;96.80;;;;;;5100113;27;20047;-68
2022/04/13 10:40:41;;;;;;;10.35;2.30;;;16.90;96.80;;;;;;5116460;27;20074;-68
2022/04/13 10:43:11;;;;;;;7.97;2.00;;;16.90;96.80;;;;;;5134850;27;20048;-68
2022/04/13 10:45:44;;;;;;;8.82;1.80;;;16.90;96.70;;;;;;5130150;27;20043;-73
2022/04/13 10:48:11;;;;;;;7.53;1.83;;;16.90;96.80;;;;;;5087059;27;20023;-70
2022/04/13 10:50:38;;;;;;;4.85;1.75;;;17.00;96.80;;;;;;5097384;27;20039;-70
2022/04/13 10:53:11;;;;;;;4.05;1.85;;;17.00;96.80;;;;;;5134103;27;20034;-69
2022/04/13 10:55:39;;;;;;;4.55;1.73;;;16.90;96.70;;;;;;5115042;27;20208;-70
2022/04/13 10:58:47;;;;;;;8.05;2.05;;;16.90;96.70;;;;;;5112718;27;20031;-69
2022/04/13 11:01:15;;;;;;;6.63;2.15;;;16.90;96.80;;;;;;5065528;27;20510;-69
2022/04/13 11:03:43;;;;;;;4.57;1.92;;;17.00;96.80;;;;;;5086387;27;20433;-69
2022/04/13 11:06:11;;;;;;;8.15;1.85;;;17.00;96.80;;;;;;5132869;27;20035;-69
2022/04/13 11:09:04;;;;;;;6.88;1.90;;;17.00;96.80;;;;;;5129100;27;20034;-70
2022/04/13 11:11:31;;;;;;;5.20;1.92;;;16.90;96.80;;;;;;5128487;27;20031;-69
2022/04/13 11:13:59;;;;;;;4.32;1.52;;;17.00;96.80;;;;;;5093137;27;20059;-70
2022/04/13 11:16:29;;;;;;;7.03;2.00;;;16.90;96.80;;;;;;5131335;27;20031;-71
2022/04/13 11:19:05;;;;;;;3.67;1.70;;;16.90;96.80;;;;;;5099779;27;20026;-70
2022/04/13 11:21:32;;;;;;;4.78;1.80;;;16.80;96.80;;;;;;5131416;27;20500;-69
2022/04/13 11:24:00;;;;;;;5.35;1.63;;;16.80;96.80;;;;;;5098143;27;20028;-68
2022/04/13 11:26:30;;;;;;;8.18;1.88;;;16.80;96.70;;;;;;5113069;28;20467;-68
2022/04/13 11:29:32;;;;;;;4.95;1.80;;;16.80;96.70;;;;;;5120815;27;20027;-68
2022/04/13 11:32:04;;;;;;;5.35;1.77;;;16.80;96.70;;;;;;5099084;28;20035;-68
2022/04/13 11:34:32;;;;;;;5.38;1.85;;;16.80;96.70;;;;;;5129832;27;20460;-68
2022/04/13 11:37:00;;;;;;;4.95;1.77;;;16.80;96.70;;;;;;5114423;27;20049;-67
2022/04/13 11:39:48;;;;;;;5.47;2.03;;;16.80;96.70;;;;;;5132505;27;20035;-70
2022/04/13 11:42:35;;;;;;;7.30;1.88;;;16.80;96.60;;;;;;5094707;27;20617;-70
2022/04/13 11:45:03;;;;;;;3.40;2.10;;;16.70;96.60;;;;;;5119101;27;20054;-70
2022/04/13 11:47:54;;;;;;;5.43;1.80;;;16.70;96.60;;;;;;5132523;27;20110;-70
2022/04/13 11:50:29;;;;;;;6.05;1.73;;;16.70;96.70;;;;;;5103868;27;20035;-70
2022/04/13 11:53:10;;;;;;;6.28;2.08;;;16.70;96.50;;;;;;5105478;27;20040;-69
2022/04/13 11:55:40;;;;;;;4.57;1.90;;;16.70;96.50;;;;;;5134744;27;20039;-69
2022/04/13 11:58:08;;;;;;;6.03;1.75;;;16.70;96.60;;;;;;5132387;27;20035;-69
2022/04/13 12:00:39;;;;;;;5.55;2.05;;;16.70;96.70;;;;;;5132295;27;20111;-69
2022/04/13 12:03:14;;;;;;;2.67;1.70;;;16.70;96.60;;;;;;5113246;27;20031;-68
2022/04/13 12:05:46;;;;;;;4.78;1.80;;;16.70;96.70;;;;;;5115051;27;20042;-69
2022/04/13 12:08:17;;;;;;;4.32;2.05;;;16.70;96.80;;;;;;5084658;27;20031;-71
2022/04/13 12:11:00;;;;;;;5.40;1.90;;;16.70;96.80;;;;;;5124058;27;20034;-69
2022/04/13 12:13:32;;;;;;;3.28;2.10;;;16.70;96.70;;;;;;5127169;27;20088;-69
2022/04/13 12:16:01;;;;;;;5.60;2.00;;;16.70;96.70;;;;;;5094727;27;20031;-68
2022/04/13 12:18:29;;;;;;;7.18;2.40;;;16.70;96.70;;;;;;5117794;27;20047;-68
2022/04/13 12:21:08;;;;;;;4.13;2.03;;;16.70;96.60;;;;;;5121472;27;20075;-68
2022/04/13 12:23:37;;;;;;;5.80;1.97;;;16.70;96.60;;;;;;5127382;27;20180;-69
2022/04/13 12:26:05;;;;;;;3.33;1.85;;;16.70;96.60;;;;;;5106037;27;20071;-68
2022/04/13 12:28:32;;;;;;;4.85;2.00;;;16.70;96.60;;;;;;5127994;27;20112;-69
2022/04/13 12:31:10;;;;;;;8.02;2.10;;;16.60;96.50;;;;;;5122930;27;20396;-69
2022/04/13 12:33:38;;;;;;;2.72;1.63;;;16.70;96.60;;;;;;5094388;27;20031;-68
2022/04/13 12:36:10;;;;;;;4.53;2.05;;;16.70;96.50;;;;;;5112750;27;20434;-69
2022/04/13 12:38:39;;;;;;;5.50;2.17;;;16.60;96.50;;;;;;5131809;27;20046;-68
2022/04/13 12:41:19;;;;;;;3.05;2.03;;;16.60;96.50;;;;;;5134192;27;20035;-68
2022/04/13 12:44:12;;;;;;;4.43;2.20;;;16.70;96.60;;;;;;5128289;27;20415;-68
2022/04/13 12:46:39;;;;;;;3.72;2.20;;;16.60;96.60;;;;;;5110810;27;20120;-68
2022/04/13 12:49:06;;;;;;;5.22;2.40;;;16.70;96.60;;;;;;5105267;27;20042;-68
2022/04/13 12:51:38;;;;;;;3.38;2.00;;;16.70;96.60;;;;;;5097028;27;20027;-68
2022/04/13 12:54:08;;;;;;;5.93;2.42;;;16.60;96.50;;;;;;5104251;27;20375;-68
2022/04/13 12:56:40;;;;;;;5.63;2.53;;;16.70;96.50;;;;;;5106711;27;20481;-68
2022/04/13 12:59:07;;;;;;;4.65;2.47;;;16.60;96.50;;;;;;5112318;27;20502;-69
2022/04/13 13:01:38;;;;;;;3.97;2.30;;;16.70;96.50;;;;;;5111929;27;20046;-68
2022/04/13 13:04:16;;;;;;;6.95;2.50;;;16.60;96.40;;;;;;5119107;27;20024;-69
2022/04/13 13:07:01;;;;;;;8.48;2.15;;;16.60;96.40;;;;;;5096894;27;20051;-69
2022/04/13 13:09:36;;;;;;;9.90;2.72;;;16.50;96.30;;;;;;5119302;27;20366;-69
2022/04/13 13:12:17;;;;;;;3.15;2.13;;;16.50;96.20;;;;;;5093439;28;20557;-69
2022/04/13 13:14:48;;;;;;;6.05;2.42;;;16.50;96.10;;;;;;5111405;28;20030;-69
2022/04/13 13:17:28;;;;;;;8.00;2.00;;;16.50;96.20;;;;;;5093475;28;20054;-69
2022/04/13 13:19:57;;;;;;;4.70;2.42;;;16.50;96.20;;;;;;5093800;28;20027;-68
2022/04/13 19:10:03;;;;;;;3.45;1.92;;;15.60;95.70;;;;;;5127851;27;19923;-69
2022/04/13 19:12:30;;;;;;;5.50;2.10;;;15.60;95.40;;;;;;5124992;27;20357;-69
2022/04/13 19:14:57;;;;;;;3.45;2.03;;;15.50;95.50;;;;;;5097349;27;20118;-69
2022/04/13 19:17:25;;;;;;;4.20;2.10;;;15.50;95.40;;;;;;5108170;27;20068;-69
2022/04/13 19:19:52;;;;;;;5.93;2.00;;;15.50;95.50;;;;;;5114795;27;20032;-69
2022/04/13 19:22:22;;;;;;;3.60;1.90;;;15.50;95.50;;;;;;5113504;27;20152;-68
2022/04/13 19:24:49;;;;;;;4.78;2.10;;;15.50;95.50;;;;;;5113395;27;20038;-69
2022/04/13 19:27:16;;;;;;;5.07;1.92;;;15.50;95.50;;;;;;5119693;27;20034;-69
2022/04/13 19:29:43;;;;;;;5.13;2.20;;;15.40;95.30;;;;;;5108508;27;20129;-69
2022/04/13 19:32:11;;;;;;;4.45;2.30;;;15.40;95.50;;;;;;5114380;27;20031;-69
2022/04/13 19:34:38;;;;;;;2.83;1.85;;;15.40;95.40;;;;;;5124800;27;20047;-69
2022/04/13 19:37:06;;;;;;;4.38;1.88;;;15.50;95.50;;;;;;5123667;27;20035;-69
2022/04/13 19:39:34;;;;;;;3.67;2.17;;;15.40;95.40;;;;;;5117268;27;20465;-69
2022/04/13 19:42:02;;;;;;;6.57;1.92;;;15.40;95.50;;;;;;5094964;27;20096;-69
2022/04/13 19:44:29;;;;;;;5.50;1.98;;;15.50;95.60;;;;;;5101391;28;20028;-69
2022/04/13 19:46:57;;;;;;;4.13;1.98;;;15.50;95.70;;;;;;5093448;27;20047;-70
2022/04/13 19:49:24;;;;;;;6.47;2.17;;;15.50;95.70;;;;;;5102988;27;20031;-69
2022/04/13 19:51:51;;;;;;;5.97;2.03;;;15.60;95.80;;;;;;5113642;27;20085;-69
2022/04/13 19:54:18;;;;;;;4.55;1.92;;;15.60;95.80;;;;;;5129227;27;20078;-69
2022/04/13 19:56:45;;;;;;;7.50;1.80;;;15.60;95.90;;;;;;5112772;28;20059;-69
2022/04/13 19:59:13;;;;;;;8.20;2.05;;;15.70;95.90;;;;;;5113104;27;20397;-69
2022/04/13 20:01:40;;;;;;;5.55;2.40;;;15.70;95.90;;;;;;5127333;27;20092;-69
2022/04/13 20:04:07;;;;;;;4.90;2.00;;;15.60;95.70;;;;;;5121679;27;20393;-70
2022/04/13 20:06:35;;;;;;;6.53;2.05;;;15.60;95.70;;;;;;5114508;27;20507;-69
2022/04/13 20:09:02;;;;;;;3.08;1.88;;;15.70;95.80;;;;;;5100438;27;20043;-69
2022/04/13 20:11:29;;;;;;;4.45;2.17;;;15.70;95.80;;;;;;5092698;27;20031;-69
2022/04/13 20:13:56;;;;;;;5.80;2.70;;;15.70;95.90;;;;;;5120848;27;20158;-69
2022/04/13 20:16:24;;;;;;;4.30;2.50;;;15.70;96.00;;;;;;5132078;27;20114;-70
2022/04/13 20:18:51;;;;;;;6.45;2.97;;;15.70;95.90;;;;;;5123562;27;20066;-69
2022/04/13 20:21:19;;;;;;;5.47;2.90;;;15.70;96.00;;;;;;5109956;27;20031;-69
2022/04/13 20:23:46;;;;;;;6.40;2.70;;;15.70;95.90;;;;;;5132070;27;20627;-69
2022/04/13 20:26:13;;;;;;;6.68;2.92;;;15.70;95.80;;;;;;5114074;27;20047;-69
2022/04/13 20:28:40;;;;;;;6.93;3.00;;;15.70;95.80;;;;;;5113099;27;20068;-69
2022/04/13 20:31:07;;;;;;;6.32;3.08;;;15.60;95.80;;;;;;5124819;27;20023;-69
2022/04/13 20:33:36;;;;;;;7.78;3.35;;;15.70;95.90;;;;;;5128384;27;20028;-69
2022/04/13 20:36:03;;;;;;;5.63;3.38;;;15.70;95.90;;;;;;5119617;27;20046;-69
2022/04/13 20:38:30;;;;;;;7.63;3.47;;;15.70;95.90;;;;;;5113082;27;20043;-69
2022/04/13 20:40:57;;;;;;;7.95;3.65;;;15.70;95.90;;;;;;5129780;27;20047;-69
2022/04/13 20:43:24;;;;;;;6.82;3.67;;;15.70;95.90;;;;;;5128493;27;20046;-69
2022/04/13 20:45:52;;;;;;;4.70;2.88;;;15.70;95.90;;;;;;5131521;27;20038;-69
2022/04/13 20:48:20;;;;;;;5.20;2.95;;;15.70;96.00;;;;;;5112312;27;20034;-69
2022/04/13 20:50:47;;;;;;;7.28;3.00;;;15.70;95.90;;;;;;5130234;27;20156;-69
2022/04/13 20:53:14;;;;;;;6.07;3.00;;;15.70;96.00;;;;;;5130756;27;20481;-69
2022/04/13 20:55:41;;;;;;;6.80;3.15;;;15.70;96.00;;;;;;5130755;27;20039;-69
2022/04/13 20:58:09;;;;;;;6.00;3.42;;;15.70;96.00;;;;;;5130908;27;20030;-69
2022/04/13 21:00:36;;;;;;;8.55;3.33;;;15.70;95.90;;;;;;5104916;27;20489;-69
2022/04/13 21:03:03;;;;;;;4.50;3.08;;;15.60;95.90;;;;;;5129828;27;20034;-70
2022/04/13 21:05:31;;;;;;;7.65;3.10;;;15.60;95.90;;;;;;5119296;27;20043;-69
2022/04/13 21:08:02;;;;;;;6.30;3.20;;;15.60;95.90;;;;;;5121920;27;20465;-69
2022/04/13 21:10:29;;;;;;;6.82;3.05;;;15.60;95.90;;;;;;5111286;28;20505;-69
2022/04/13 21:12:56;;;;;;;5.63;3.10;;;15.60;95.90;;;;;;5093175;28;20032;-69
2022/04/13 21:15:23;;;;;;;3.65;3.03;;;15.70;96.00;;;;;;5091966;27;20127;-69
2022/04/13 21:17:51;;;;;;;8.18;3.10;;;15.70;96.10;;;;;;5109622;28;20032;-69
2022/04/13 21:20:19;;;;;;;4.75;2.70;;;15.80;96.20;;;;;;5109965;28;20035;-69
2022/04/13 21:22:46;;;;;;;9.25;3.00;;;15.80;96.20;;;;;;5114607;27;20087;-70
2022/04/13 21:25:13;;;;;;;5.50;3.20;;;15.80;96.20;;;;;;5113279;27;20043;-69
2022/04/13 21:27:40;;;;;;;5.93;3.03;;;15.80;96.10;;;;;;5131416;27;20474;-69
2022/04/13 21:30:08;;;;;;;8.60;3.00;;;15.90;96.30;;;;;;5129632;27;20396;-69
2022/04/13 21:32:35;;;;;;;5.05;3.08;;;16.00;96.20;;;;;;5111080;27;20039;-69
2022/04/13 21:35:03;;;;;;;8.50;3.00;;;16.00;96.20;;;;;;5130297;27;20118;-69
2022/04/13 21:37:30;;;;;;;6.00;3.03;;;16.00;96.30;;;;;;5111903;27;20489;-68
2022/04/13 21:39:57;;;;;;;7.75;3.30;;;16.00;96.20;;;;;;5131304;27;20113;-69
2022/04/13 21:42:24;;;;;;;5.80;3.38;;;16.00;96.20;;;;;;5129611;27;20027;-69
2022/04/13 21:44:51;;;;;;;4.85;3.20;;;16.00;96.10;;;;;;5130130;27;20042;-69
2022/04/13 21:47:19;;;;;;;4.88;2.88;;;16.00;96.00;;;;;;5131334;27;20114;-69
2022/04/13 21:49:46;;;;;;;4.25;2.90;;;15.90;96.00;;;;;;5129515;27;20084;-70
2022/04/13 21:52:13;;;;;;;4.75;3.47;;;15.90;96.10;;;;;;5127644;27;20480;-70
2022/04/13 21:54:40;;;;;;;7.20;3.50;;;15.90;96.10;;;;;;5112175;28;20480;-69
2022/04/13 21:57:07;;;;;;;6.57;3.58;;;16.00;96.10;;;;;;5131652;28;20031;-70
2022/04/13 21:59:35;;;;;;;7.45;3.80;;;16.00;96.20;;;;;;5131030;28;20035;-70
2022/04/13 22:02:02;;;;;;;6.30;3.40;;;16.00;96.20;;;;;;5131062;28;20027;-69
2022/04/13 22:04:29;;;;;;;9.30;3.92;;;16.00;96.20;;;;;;5113174;28;20046;-69
2022/04/13 22:06:56;;;;;;;6.32;3.25;;;16.10;96.40;;;;;;5130845;28;20035;-70
2022/04/13 22:09:23;;;;;;;6.45;3.58;;;16.20;96.40;;;;;;5130563;28;20040;-70
2022/04/13 22:11:50;;;;;;;11.90;3.58;;;16.20;96.40;;;;;;5130871;28;20069;-70
2022/04/13 22:14:18;;;;;;;7.63;3.85;;;16.30;96.50;;;;;;5131494;28;20024;-69
2022/04/13 22:16:45;;;;;;;8.48;3.78;;;16.30;96.50;;;;;;5131262;28;20039;-69
2022/04/13 22:19:12;;;;;;;7.00;3.45;;;16.30;96.50;;;;;;5131582;28;20422;-69
2022/04/13 22:21:39;;;;;;;6.30;3.60;;;16.30;96.60;;;;;;5131074;28;20031;-69
2022/04/13 22:24:07;;;;;;;8.43;3.63;;;16.40;96.70;;;;;;5131152;28;20110;-69
2022/04/13 22:26:34;;;;;;;8.10;3.20;;;16.50;96.60;;;;;;5131156;28;20047;-69
2022/04/13 22:29:01;;;;;;;6.70;3.38;;;16.50;96.60;;;;;;5130997;28;20035;-69
